Time;durP1;ratioP1;P1;durP2;ratioP2;P2;SDS_P1;SDS_P2;PMS_P1;PMS_P2;Temp;Humidity;BMP_temperature;BMP_pressure;BME280_temperature;BME280_humidity;BME280_pressure;Samples;Min_cycle;Max_cycle;Signal;HPM_P1;HPM_P2
2023/05/23 00:01:07;;;;;;;39.25;22.88;;;14.20;99.90;;;;;;5001153;28;89754;-32
2023/05/23 00:03:33;;;;;;;36.58;22.90;;;14.20;99.90;;;;;;5001181;28;89201;-35
2023/05/23 00:06:00;;;;;;;43.03;25.08;;;14.20;99.90;;;;;;5001040;28;89940;-32
2023/05/23 00:08:25;;;;;;;36.13;25.13;;;14.20;99.90;;;;;;5001607;28;88061;-31
2023/05/23 00:10:51;;;;;;;39.25;21.63;;;14.10;99.90;;;;;;5000993;28;90230;-32
2023/05/23 00:13:17;;;;;;;35.85;23.45;;;14.10;99.90;;;;;;4999682;28;90832;-31
2023/05/23 00:15:44;;;;;;;32.45;21.40;;;14.10;99.90;;;;;;5000891;28;89385;-32
2023/05/23 00:18:10;;;;;;;38.50;21.98;;;14.20;99.90;;;;;;5000169;28;89717;-33
2023/05/23 00:20:45;;;;;;;45.05;24.67;;;14.10;99.90;;;;;;5000519;28;90350;-33
2023/05/23 00:23:17;;;;;;;31.08;20.23;;;14.10;99.90;;;;;;5000565;28;89768;-33
2023/05/23 00:25:47;;;;;;;30.77;21.23;;;14.10;99.90;;;;;;5000113;28;90079;-34
2023/05/23 00:28:13;;;;;;;30.88;19.67;;;14.10;99.90;;;;;;4999840;28;88167;-34
2023/05/23 00:30:39;;;;;;;36.15;19.65;;;14.10;99.90;;;;;;5000620;28;90178;-31
2023/05/23 00:33:05;;;;;;;32.40;19.08;;;14.10;99.90;;;;;;5000800;28;89932;-32
2023/05/23 00:35:30;;;;;;;30.02;18.33;;;14.10;99.90;;;;;;5000334;28;90584;-31
2023/05/23 00:37:56;;;;;;;27.35;18.67;;;14.10;99.90;;;;;;4999784;28;88912;-34
2023/05/23 00:40:22;;;;;;;31.70;19.23;;;14.10;99.90;;;;;;4999762;28;90199;-34
2023/05/23 00:42:48;;;;;;;37.08;19.40;;;14.00;99.90;;;;;;5000640;28;90866;-31
2023/05/23 00:45:15;;;;;;;28.88;16.88;;;14.10;99.90;;;;;;4999815;28;89103;-34
2023/05/23 00:47:42;;;;;;;24.90;18.08;;;14.00;99.90;;;;;;5000645;28;89114;-35
2023/05/23 00:50:10;;;;;;;32.80;18.40;;;14.00;99.90;;;;;;4999938;28;90283;-30
2023/05/23 00:52:36;;;;;;;;;;;14.00;99.90;;;;;;5000893;28;89226;-33
2023/05/23 00:55:02;;;;;;;24.15;15.43;;;14.00;99.90;;;;;;5002097;28;89846;-34
2023/05/23 00:57:28;;;;;;;22.92;14.32;;;14.00;99.90;;;;;;5000351;28;89109;-31
2023/05/23 00:59:54;;;;;;;21.90;16.38;;;14.00;99.90;;;;;;4999457;28;90554;-35
2023/05/23 01:02:20;;;;;;;26.33;18.15;;;14.00;99.90;;;;;;4999379;28;90892;-32
2023/05/23 01:04:53;;;;;;;21.73;15.75;;;14.00;99.90;;;;;;4999191;28;90130;-35
2023/05/23 01:07:19;;;;;;;22.63;16.15;;;14.00;99.90;;;;;;5000182;28;88545;-34
2023/05/23 01:09:46;;;;;;;20.33;14.30;;;14.00;99.90;;;;;;4999837;28;90395;-33
2023/05/23 01:12:14;;;;;;;22.77;16.13;;;14.00;99.90;;;;;;4999512;28;89029;-32
2023/05/23 01:15:02;;;;;;;20.85;13.82;;;14.00;99.90;;;;;;4999812;28;89647;-35
2023/05/23 01:17:30;;;;;;;16.90;15.07;;;14.00;99.90;;;;;;4999195;28;89660;-36
2023/05/23 01:20:07;;;;;;;22.23;13.55;;;13.90;99.90;;;;;;5000705;28;90009;-32
2023/05/23 01:23:00;;;;;;;21.25;13.57;;;13.90;99.90;;;;;;4999804;28;89722;-33
2023/05/23 01:25:48;;;;;;;15.30;12.70;;;13.90;99.90;;;;;;4998697;28;89695;-34
2023/05/23 01:28:17;;;;;;;20.13;14.90;;;13.90;99.90;;;;;;4998687;28;89779;-35
2023/05/23 01:30:45;;;;;;;19.60;11.93;;;13.90;99.90;;;;;;4998993;28;89887;-35
2023/05/23 01:33:14;;;;;;;19.00;12.97;;;13.90;99.90;;;;;;4999708;28;89754;-31
2023/05/23 01:35:42;;;;;;;14.95;11.90;;;13.90;99.90;;;;;;4999457;28;89799;-34
2023/05/23 01:38:08;;;;;;;16.55;13.52;;;13.90;99.90;;;;;;4999706;28;88913;-32
2023/05/23 01:40:33;;;;;;;15.93;12.43;;;13.90;99.90;;;;;;4998723;28;89647;-35
2023/05/23 01:42:59;;;;;;;15.05;12.52;;;13.90;99.90;;;;;;5000183;28;89812;-35
2023/05/23 01:45:26;;;;;;;23.55;13.93;;;13.90;99.90;;;;;;4998619;28;91304;-33
2023/05/23 01:47:53;;;;;;;19.75;13.77;;;14.00;99.90;;;;;;4999096;28;89040;-33
2023/05/23 01:50:19;;;;;;;25.35;16.27;;;13.90;99.90;;;;;;4999508;28;89988;-35
2023/05/23 01:52:46;;;;;;;18.95;14.57;;;13.90;99.90;;;;;;4992892;28;91491;-32
2023/05/23 01:55:14;;;;;;;22.90;15.88;;;13.80;99.90;;;;;;4979167;28;90377;-34
2023/05/23 01:57:40;;;;;;;21.10;17.65;;;13.80;99.90;;;;;;4979385;28;89066;-33
2023/05/23 02:00:07;;;;;;;26.70;17.35;;;13.80;99.90;;;;;;4979066;28;90261;-36
2023/05/23 02:02:35;;;;;;;23.48;18.27;;;13.70;99.90;;;;;;4979051;28;89367;-35
2023/05/23 02:05:01;;;;;;;29.55;17.90;;;13.70;99.90;;;;;;4978998;28;89758;-31
2023/05/23 02:07:26;;;;;;;23.88;17.38;;;13.70;99.90;;;;;;4979423;28;87511;-33
2023/05/23 02:09:53;;;;;;;24.08;17.95;;;13.70;99.90;;;;;;4978529;28;90391;-32
2023/05/23 02:12:18;;;;;;;21.02;14.38;;;13.60;99.90;;;;;;4978576;28;88993;-33
2023/05/23 02:14:44;;;;;;;20.58;14.63;;;13.60;99.90;;;;;;4978918;28;89947;-32
2023/05/23 02:17:10;;;;;;;25.15;16.73;;;13.60;99.90;;;;;;4977605;28;89344;-34
2023/05/23 02:19:36;;;;;;;19.58;12.30;;;13.50;99.90;;;;;;4978915;28;88629;-30
2023/05/23 02:22:02;;;;;;;19.55;13.75;;;13.60;99.90;;;;;;4978662;28;89775;-35
2023/05/23 02:24:28;;;;;;;20.10;12.60;;;13.60;99.90;;;;;;4977976;28;90116;-36
2023/05/23 02:26:54;;;;;;;14.90;11.77;;;13.50;99.90;;;;;;4978703;28;89530;-32
2023/05/23 02:29:19;;;;;;;14.02;11.65;;;13.50;99.90;;;;;;4978005;28;90250;-33
2023/05/23 02:31:45;;;;;;;18.42;13.35;;;13.50;99.90;;;;;;4978811;28;89606;-32
2023/05/23 02:34:11;;;;;;;16.33;12.13;;;13.50;99.90;;;;;;4978663;28;90020;-34
2023/05/23 02:36:38;;;;;;;17.60;11.98;;;13.40;99.90;;;;;;4978618;28;88225;-33
2023/05/23 02:39:04;;;;;;;14.32;11.27;;;13.40;99.90;;;;;;4978857;28;89918;-31
2023/05/23 02:41:30;;;;;;;22.85;12.27;;;13.40;99.90;;;;;;4977658;28;90513;-34
2023/05/23 02:43:56;;;;;;;20.73;10.20;;;13.40;99.90;;;;;;4979453;28;90692;-35
2023/05/23 02:46:22;;;;;;;15.13;10.35;;;13.30;99.90;;;;;;4978644;28;89448;-34
2023/05/23 02:48:47;;;;;;;13.18;10.65;;;13.40;99.90;;;;;;4978634;28;90037;-37
2023/05/23 02:51:13;;;;;;;18.80;11.25;;;13.30;99.90;;;;;;4977679;28;90192;-32
2023/05/23 02:53:39;;;;;;;18.27;9.77;;;13.20;99.90;;;;;;4978218;28;89940;-32
2023/05/23 02:56:07;;;;;;;22.85;10.77;;;13.20;99.90;;;;;;4979384;28;89465;-34
2023/05/23 02:58:34;;;;;;;23.70;9.68;;;13.20;99.90;;;;;;4978674;28;89949;-32
2023/05/23 03:01:03;;;;;;;13.77;9.75;;;13.20;99.90;;;;;;4978617;28;89973;-35
2023/05/23 03:03:30;;;;;;;19.27;9.82;;;13.20;99.90;;;;;;4978705;28;89816;-33
2023/05/23 03:05:57;;;;;;;12.02;9.55;;;13.20;99.90;;;;;;4978718;28;90197;-33
2023/05/23 03:08:23;;;;;;;17.98;11.25;;;13.10;99.90;;;;;;4978862;28;89063;-34
2023/05/23 03:10:48;;;;;;;19.13;10.75;;;13.10;99.90;;;;;;4977725;28;90067;-33
2023/05/23 03:13:14;;;;;;;16.25;10.30;;;13.10;99.90;;;;;;4977934;28;89585;-36
2023/05/23 03:15:40;;;;;;;17.83;8.90;;;13.10;99.90;;;;;;4978381;28;88886;-34
2023/05/23 03:18:06;;;;;;;15.10;9.77;;;13.00;99.90;;;;;;4978256;28;90286;-35
2023/05/23 03:20:32;;;;;;;19.05;10.45;;;13.10;99.90;;;;;;4979078;28;89584;-32
2023/05/23 03:22:57;;;;;;;13.15;8.00;;;13.00;99.90;;;;;;4980983;28;89489;-34
2023/05/23 03:25:23;;;;;;;11.90;7.25;;;13.00;99.90;;;;;;4982238;28;89801;-30
2023/05/23 03:27:48;;;;;;;17.45;9.40;;;12.90;99.90;;;;;;4982451;28;90211;-33
2023/05/23 03:30:14;;;;;;;11.05;6.97;;;13.00;99.90;;;;;;4981189;28;90542;-33
2023/05/23 03:32:40;;;;;;;11.43;6.55;;;13.00;99.90;;;;;;4982614;28;89240;-31
2023/05/23 03:35:06;;;;;;;19.48;7.15;;;13.00;99.90;;;;;;4982204;28;88556;-33
2023/05/23 03:37:31;;;;;;;10.85;6.95;;;12.90;99.90;;;;;;4982472;28;89652;-31
2023/05/23 03:39:57;;;;;;;7.65;6.55;;;12.90;99.90;;;;;;4981870;28;89205;-33
2023/05/23 03:42:22;;;;;;;7.30;5.50;;;12.90;99.90;;;;;;4981171;28;88529;-36
2023/05/23 03:44:48;;;;;;;7.00;5.35;;;12.80;99.90;;;;;;4982338;28;89415;-31
2023/05/23 03:47:14;;;;;;;7.18;5.35;;;12.80;99.90;;;;;;4981950;28;90329;-36
2023/05/23 03:49:39;;;;;;;15.30;4.97;;;12.70;99.90;;;;;;4981958;28;89452;-33
2023/05/23 03:52:05;;;;;;;14.35;5.35;;;12.60;99.90;;;;;;4981477;28;91040;-33
2023/05/23 03:54:31;;;;;;;7.82;5.18;;;12.70;99.90;;;;;;4981484;28;90325;-32
2023/05/23 03:56:56;;;;;;;10.23;5.93;;;12.70;99.90;;;;;;4981565;28;89914;-31
2023/05/23 03:59:22;;;;;;;9.70;6.75;;;12.60;99.90;;;;;;4981276;28;89610;-36
2023/05/23 04:01:47;;;;;;;18.08;7.95;;;12.60;99.90;;;;;;4981658;28;89518;-33
2023/05/23 04:04:13;;;;;;;13.85;7.18;;;12.60;99.90;;;;;;4980900;28;89430;-36
2023/05/23 04:06:39;;;;;;;10.57;6.80;;;12.50;99.90;;;;;;4981463;28;90351;-32
2023/05/23 04:09:05;;;;;;;23.83;8.80;;;12.50;99.90;;;;;;4981407;28;89775;-32
2023/05/23 04:11:31;;;;;;;16.20;8.60;;;12.50;99.90;;;;;;4981634;28;89157;-32
2023/05/23 04:13:57;;;;;;;10.15;7.15;;;12.40;99.90;;;;;;4981873;28;90022;-32
2023/05/23 04:16:23;;;;;;;12.85;7.05;;;12.40;99.90;;;;;;4980861;28;90240;-36
2023/05/23 04:18:50;;;;;;;21.45;8.23;;;12.50;99.90;;;;;;5030955;22;90340;-34
2023/05/23 04:21:16;;;;;;;20.83;8.35;;;12.40;99.90;;;;;;5001070;28;89964;-32
2023/05/23 04:23:41;;;;;;;21.98;9.30;;;12.50;99.90;;;;;;5001951;28;90173;-35
2023/05/23 04:26:09;;;;;;;15.40;7.90;;;12.40;99.90;;;;;;5001145;28;90743;-36
2023/05/23 04:28:34;;;;;;;22.42;10.23;;;12.40;99.90;;;;;;5000493;28;89906;-32
2023/05/23 04:31:01;;;;;;;19.45;8.38;;;12.50;99.90;;;;;;5000262;28;89667;-34
2023/05/23 04:33:29;;;;;;;14.00;7.47;;;12.40;99.90;;;;;;5001252;28;89867;-33
2023/05/23 04:35:56;;;;;;;14.10;7.70;;;12.40;99.90;;;;;;5001201;28;92002;-32
2023/05/23 04:38:23;;;;;;;17.23;7.45;;;12.30;99.90;;;;;;5000654;28;89737;-31
2023/05/23 04:40:51;;;;;;;9.50;6.32;;;12.30;99.90;;;;;;5001301;28;89928;-36
2023/05/23 04:43:18;;;;;;;7.67;6.83;;;12.40;99.90;;;;;;5000733;28;89272;-34
2023/05/23 04:45:50;;;;;;;16.30;6.40;;;12.30;99.90;;;;;;5001213;28;89499;-31
2023/05/23 04:48:20;;;;;;;10.68;5.90;;;12.40;99.90;;;;;;5001596;28;88864;-31
2023/05/23 04:50:46;;;;;;;9.70;6.82;;;12.30;99.90;;;;;;5000988;28;89107;-34
2023/05/23 04:53:12;;;;;;;9.57;5.13;;;12.30;99.90;;;;;;5000463;28;87595;-30
2023/05/23 04:55:38;;;;;;;10.88;6.32;;;12.30;99.90;;;;;;5000029;28;89634;-34
2023/05/23 04:58:03;;;;;;;15.38;6.18;;;12.20;99.90;;;;;;5001357;28;90774;-32
2023/05/23 05:00:29;;;;;;;14.73;6.70;;;12.20;99.90;;;;;;5000005;28;89550;-33
2023/05/23 05:02:55;;;;;;;12.70;7.03;;;12.10;99.90;;;;;;5001640;28;89596;-33
2023/05/23 05:05:20;;;;;;;13.18;6.30;;;12.20;99.90;;;;;;4999877;28;90231;-34
2023/05/23 05:07:46;;;;;;;22.27;6.38;;;12.10;99.90;;;;;;5000225;28;91164;-31
2023/05/23 05:10:18;;;;;;;16.42;6.15;;;12.10;99.90;;;;;;5000151;28;90640;-33
2023/05/23 05:12:48;;;;;;;13.75;6.57;;;12.10;99.90;;;;;;5001270;28;89377;-31
2023/05/23 05:15:17;;;;;;;13.60;5.80;;;12.10;99.90;;;;;;5000505;28;90256;-33
2023/05/23 05:17:43;;;;;;;10.18;5.13;;;12.10;99.90;;;;;;5000283;28;89915;-30
2023/05/23 05:20:10;;;;;;;9.40;5.47;;;12.00;99.90;;;;;;4999813;28;89277;-33
2023/05/23 05:22:38;;;;;;;11.48;6.82;;;12.00;99.90;;;;;;5001265;28;89109;-35
2023/05/23 05:25:08;;;;;;;11.75;5.82;;;12.10;99.90;;;;;;5000647;28;90444;-31
2023/05/23 05:27:36;;;;;;;10.95;4.90;;;12.00;99.90;;;;;;5000544;28;90673;-32
2023/05/23 05:30:09;;;;;;;18.52;6.50;;;12.00;99.90;;;;;;5000408;28;89807;-34
2023/05/23 05:32:34;;;;;;;10.55;5.40;;;12.10;99.90;;;;;;4999897;28;89592;-33
2023/05/23 05:35:01;;;;;;;11.43;5.10;;;12.10;99.90;;;;;;5000699;28;89817;-32
2023/05/23 05:37:26;;;;;;;14.25;5.72;;;12.00;99.90;;;;;;4999283;28;89793;-36
2023/05/23 05:39:53;;;;;;;13.50;4.47;;;12.00;99.90;;;;;;4999694;28;89138;-32
2023/05/23 05:42:20;;;;;;;10.20;5.45;;;12.00;99.90;;;;;;5000284;28;88393;-32
2023/05/23 05:44:47;;;;;;;9.65;5.00;;;12.00;99.90;;;;;;4999162;28;90209;-33
2023/05/23 05:47:12;;;;;;;13.18;6.28;;;12.10;99.90;;;;;;5000238;28;88003;-36
2023/05/23 05:49:38;;;;;;;8.65;6.50;;;12.00;99.90;;;;;;5000321;28;89592;-33
2023/05/23 05:52:05;;;;;;;11.00;5.93;;;12.00;99.90;;;;;;5000104;28;88990;-32
2023/05/23 05:54:31;;;;;;;15.00;6.25;;;11.90;99.90;;;;;;4999482;28;88760;-32
2023/05/23 05:56:57;;;;;;;11.60;6.40;;;11.90;99.90;;;;;;4999481;28;91558;-31
2023/05/23 05:59:22;;;;;;;12.77;6.10;;;11.80;99.90;;;;;;4999390;28;90818;-31
2023/05/23 06:01:50;;;;;;;9.30;6.35;;;11.80;99.90;;;;;;5000357;28;88155;-32
2023/05/23 06:04:16;;;;;;;8.93;5.72;;;11.80;99.90;;;;;;4999656;28;89684;-31
2023/05/23 06:06:41;;;;;;;13.02;7.00;;;11.70;99.90;;;;;;4999299;28;89271;-34
2023/05/23 06:09:07;;;;;;;8.25;5.80;;;11.70;99.90;;;;;;4999680;28;89618;-31
2023/05/23 06:11:33;;;;;;;11.75;6.20;;;11.80;99.90;;;;;;4999532;28;88068;-33
2023/05/23 06:13:58;;;;;;;9.80;5.28;;;11.70;99.90;;;;;;4999984;28;90246;-34
2023/05/23 06:16:24;;;;;;;12.35;5.68;;;11.60;99.90;;;;;;4999594;28;88656;-31
2023/05/23 06:18:49;;;;;;;13.82;7.47;;;11.60;99.90;;;;;;5000080;28;89626;-35
2023/05/23 06:21:15;;;;;;;18.13;7.40;;;11.60;99.90;;;;;;4998881;28;88149;-35
2023/05/23 06:23:40;;;;;;;10.10;6.35;;;11.50;99.90;;;;;;4999690;28;89789;-35
2023/05/23 06:26:09;;;;;;;9.82;6.38;;;11.40;99.90;;;;;;4999116;28;89591;-36
2023/05/23 06:28:37;;;;;;;10.45;6.40;;;11.40;99.90;;;;;;4999031;28;89712;-34
2023/05/23 06:31:03;;;;;;;11.23;6.57;;;11.40;99.90;;;;;;4999188;28;89379;-32
2023/05/23 06:33:30;;;;;;;12.35;6.97;;;11.40;99.90;;;;;;4998797;28;90069;-35
2023/05/23 06:35:56;;;;;;;15.20;7.22;;;11.40;99.90;;;;;;4996461;28;90951;-34
2023/05/23 06:38:21;;;;;;;23.38;5.65;;;11.40;99.90;;;;;;4998564;28;88398;-32
2023/05/23 06:40:47;;;;;;;9.88;5.97;;;11.40;99.90;;;;;;5000048;28;88192;-33
2023/05/23 06:43:12;;;;;;;14.20;6.35;;;11.40;99.90;;;;;;4998919;28;89972;-32
2023/05/23 06:45:38;;;;;;;11.07;5.22;;;11.50;99.90;;;;;;4999022;28;90505;-31
2023/05/23 06:48:04;;;;;;;13.27;6.75;;;11.50;99.90;;;;;;4999085;28;91807;-32
2023/05/23 06:50:30;;;;;;;13.80;6.13;;;11.50;99.90;;;;;;4997613;28;88508;-32
2023/05/23 06:52:55;;;;;;;20.52;5.10;;;11.50;99.90;;;;;;4999054;28;90209;-30
2023/05/23 06:55:22;;;;;;;12.90;6.22;;;11.50;99.90;;;;;;4997381;28;90590;-30
2023/05/23 06:57:50;;;;;;;10.07;5.40;;;11.50;99.90;;;;;;5002166;28;89464;-32
2023/05/23 07:00:16;;;;;;;;;;;11.50;99.90;;;;;;5003598;28;90032;-32
2023/05/23 07:02:44;;;;;;;14.98;6.25;;;11.50;99.90;;;;;;5003364;28;89743;-35
2023/05/23 07:05:10;;;;;;;6.32;5.03;;;11.50;99.90;;;;;;5002288;28;89615;-35
2023/05/23 07:07:35;;;;;;;14.38;5.20;;;11.50;99.90;;;;;;5002565;28;89472;-33
2023/05/23 07:10:01;;;;;;;14.00;6.15;;;11.50;99.90;;;;;;5001917;28;90529;-35
2023/05/23 07:12:27;;;;;;;6.32;3.88;;;11.40;99.90;;;;;;5002352;28;88821;-35
2023/05/23 07:14:52;;;;;;;8.25;3.58;;;11.40;99.90;;;;;;5002429;28;89824;-31
2023/05/23 07:17:18;;;;;;;9.60;4.97;;;11.50;99.90;;;;;;5001379;28;89230;-36
2023/05/23 07:19:45;;;;;;;7.28;3.95;;;11.60;99.90;;;;;;5002984;28;88768;-32
2023/05/23 07:22:10;;;;;;;8.95;4.82;;;11.50;99.90;;;;;;4997216;28;90236;-33
2023/05/23 07:24:36;;;;;;;8.30;3.92;;;11.60;99.90;;;;;;4999846;28;90205;-31
2023/05/23 07:27:02;;;;;;;9.10;4.57;;;11.60;99.90;;;;;;4999562;28;90274;-35
2023/05/23 07:29:28;;;;;;;4.85;4.03;;;11.60;99.90;;;;;;4998758;28;88340;-33
2023/05/23 07:31:53;;;;;;;10.02;4.45;;;11.60;99.90;;;;;;4999038;28;90249;-35
2023/05/23 07:34:19;;;;;;;11.48;6.28;;;11.70;99.90;;;;;;4998764;28;90832;-31
2023/05/23 07:36:46;;;;;;;18.35;5.65;;;11.70;99.90;;;;;;4999797;28;90148;-35
2023/05/23 07:39:12;;;;;;;7.10;3.53;;;11.70;99.90;;;;;;4999161;28;88860;-36
2023/05/23 07:41:37;;;;;;;17.27;5.22;;;11.70;99.90;;;;;;4998577;28;88982;-35
2023/05/23 07:44:03;;;;;;;12.73;6.28;;;11.70;99.90;;;;;;4999740;28;90088;-34
2023/05/23 07:46:29;;;;;;;4.88;3.35;;;11.70;99.90;;;;;;4999448;28;88904;-34
2023/05/23 07:48:55;;;;;;;14.63;5.45;;;11.70;99.90;;;;;;5000425;28;87774;-33
2023/05/23 07:51:21;;;;;;;11.35;5.57;;;11.70;99.90;;;;;;4998872;28;90134;-33
2023/05/23 07:53:46;;;;;;;15.00;5.00;;;11.80;99.90;;;;;;4998861;28;89202;-35
2023/05/23 07:56:12;;;;;;;17.00;5.22;;;11.80;99.90;;;;;;4999839;28;89910;-30
2023/05/23 07:58:38;;;;;;;12.05;5.70;;;11.90;99.90;;;;;;4998766;28;89390;-35
2023/05/23 08:01:04;;;;;;;12.60;4.20;;;11.90;99.90;;;;;;4999483;28;89904;-33
2023/05/23 08:03:30;;;;;;;10.27;4.30;;;11.90;99.90;;;;;;4999230;28;89582;-32
2023/05/23 08:05:55;;;;;;;11.02;3.92;;;11.90;99.90;;;;;;4998458;28;89627;-37
2023/05/23 08:08:21;;;;;;;17.05;6.68;;;11.90;99.90;;;;;;4998959;28;88362;-33
2023/05/23 08:10:47;;;;;;;12.25;5.45;;;11.80;99.90;;;;;;4998745;28;90185;-31
2023/05/23 08:13:13;;;;;;;10.50;4.30;;;11.90;99.90;;;;;;4998657;28;89758;-30
2023/05/23 08:15:38;;;;;;;15.85;4.40;;;11.90;99.90;;;;;;4998336;28;89901;-33
2023/05/23 08:18:04;;;;;;;11.18;5.43;;;11.90;99.90;;;;;;4997626;28;89422;-32
2023/05/23 08:20:31;;;;;;;7.72;3.22;;;11.90;99.90;;;;;;4997458;28;90506;-32
2023/05/23 08:23:00;;;;;;;10.02;4.85;;;11.90;99.90;;;;;;4997234;28;88815;-34
2023/05/23 08:25:30;;;;;;;16.65;7.40;;;11.90;99.90;;;;;;4998413;28;90476;-33
2023/05/23 08:27:57;;;;;;;11.07;4.22;;;11.90;99.90;;;;;;4998655;28;88962;-34
2023/05/23 08:30:24;;;;;;;8.38;3.70;;;12.00;99.90;;;;;;4994735;28;90879;-31
2023/05/23 08:32:51;;;;;;;11.82;4.03;;;12.00;99.90;;;;;;4998241;28;89643;-36
2023/05/23 08:35:17;;;;;;;11.10;4.78;;;12.10;99.90;;;;;;4998461;28;89199;-32
2023/05/23 08:37:45;;;;;;;12.25;4.55;;;12.20;99.90;;;;;;4998488;28;89351;-35
2023/05/23 08:40:13;;;;;;;15.80;5.22;;;12.20;99.90;;;;;;4999036;28;88920;-36
2023/05/23 08:42:39;;;;;;;12.15;4.53;;;12.40;99.90;;;;;;4998403;28;89310;-32
2023/05/23 08:45:06;;;;;;;12.85;5.18;;;12.50;99.90;;;;;;4998254;28;89414;-32
2023/05/23 08:47:36;;;;;;;16.58;5.53;;;12.50;99.90;;;;;;4998965;28;88918;-32
2023/05/23 08:50:05;;;;;;;17.15;4.88;;;12.50;99.90;;;;;;4997616;28;90232;-35
2023/05/23 08:52:32;;;;;;;8.05;3.75;;;12.60;99.90;;;;;;4997358;28;90989;-32
2023/05/23 08:55:00;;;;;;;11.13;5.60;;;12.80;99.90;;;;;;4997894;28;89693;-34
2023/05/23 08:57:27;;;;;;;8.07;4.60;;;12.90;99.90;;;;;;4998057;28;89298;-34
2023/05/23 08:59:53;;;;;;;14.15;4.22;;;13.00;99.90;;;;;;4997641;28;90100;-34
2023/05/23 09:02:19;;;;;;;8.00;3.92;;;13.10;99.90;;;;;;4997754;28;89664;-35
2023/05/23 09:04:45;;;;;;;10.07;4.90;;;13.20;99.90;;;;;;4998540;28;89698;-33
2023/05/23 09:07:15;;;;;;;12.77;4.10;;;13.30;99.90;;;;;;4997407;28;89190;-33
2023/05/23 09:09:41;;;;;;;15.65;5.20;;;13.40;99.90;;;;;;4997731;28;91712;-32
2023/05/23 09:12:06;;;;;;;9.90;5.03;;;13.50;99.90;;;;;;4996219;28;90613;-34
2023/05/23 09:14:32;;;;;;;17.85;5.63;;;13.70;99.90;;;;;;4997590;28;90575;-33
2023/05/23 09:17:01;;;;;;;10.75;3.90;;;13.80;99.90;;;;;;4998403;28;90288;-33
2023/05/23 09:19:27;;;;;;;16.25;5.70;;;14.10;99.90;;;;;;4996699;28;90169;-33
2023/05/23 09:21:54;;;;;;;7.20;4.53;;;14.30;99.90;;;;;;4997406;28;90102;-35
2023/05/23 09:24:21;;;;;;;10.93;5.45;;;14.40;99.90;;;;;;4997509;28;89410;-32
2023/05/23 09:26:47;;;;;;;7.35;4.55;;;14.10;99.90;;;;;;4998478;28;87934;-33
2023/05/23 09:29:13;;;;;;;10.68;5.07;;;14.30;99.90;;;;;;4997594;28;90152;-32
2023/05/23 09:31:38;;;;;;;9.27;4.82;;;14.30;99.90;;;;;;4997012;28;88340;-36
2023/05/23 09:34:05;;;;;;;11.57;4.95;;;14.00;99.90;;;;;;4998083;28;89646;-33
2023/05/23 09:36:35;;;;;;;6.53;4.75;;;13.80;99.90;;;;;;4997662;28;90291;-31
2023/05/23 09:39:04;;;;;;;11.52;5.35;;;14.00;99.90;;;;;;4997384;28;90295;-31
2023/05/23 09:41:33;;;;;;;9.80;3.97;;;14.00;99.90;;;;;;4996812;28;89594;-35
2023/05/23 09:44:03;;;;;;;11.25;5.60;;;14.00;99.90;;;;;;4996301;28;90459;-31
2023/05/23 09:46:29;;;;;;;12.88;5.63;;;13.80;99.90;;;;;;4997006;28;89168;-35
2023/05/23 09:48:55;;;;;;;8.85;4.60;;;13.80;99.90;;;;;;4998229;28;90027;-35
2023/05/23 09:51:22;;;;;;;11.75;5.50;;;13.60;99.90;;;;;;4996865;28;89475;-32
2023/05/23 09:53:51;;;;;;;10.00;4.15;;;13.70;99.90;;;;;;4997090;28;90344;-32
2023/05/23 09:56:18;;;;;;;10.70;5.10;;;13.80;99.90;;;;;;4997192;28;89257;-33
2023/05/23 09:58:48;;;;;;;10.90;3.80;;;13.80;99.90;;;;;;4997831;28;89786;-33
2023/05/23 10:01:15;;;;;;;9.57;4.07;;;14.00;99.90;;;;;;4995788;28;90829;-37
2023/05/23 10:03:50;;;;;;;20.80;5.32;;;14.10;99.90;;;;;;4997608;28;90377;-35
2023/05/23 10:06:19;;;;;;;8.63;4.25;;;14.00;99.90;;;;;;4996837;28;89527;-35
2023/05/23 10:08:53;;;;;;;13.43;4.32;;;14.20;99.90;;;;;;4996339;28;90168;-31
2023/05/23 10:11:34;;;;;;;11.63;5.07;;;14.30;99.90;;;;;;4996709;28;89247;-31
2023/05/23 10:14:06;;;;;;;11.05;4.85;;;14.20;99.90;;;;;;4997092;28;90285;-30
2023/05/23 10:16:57;;;;;;;9.77;5.13;;;14.20;99.90;;;;;;4996764;28;87971;-31
2023/05/23 10:19:43;;;;;;;9.20;4.00;;;14.20;99.90;;;;;;4996092;28;90202;-33
2023/05/23 10:22:11;;;;;;;10.93;4.50;;;14.20;99.90;;;;;;4995980;28;89920;-30
2023/05/23 10:24:37;;;;;;;7.37;4.13;;;14.30;99.90;;;;;;4996565;28;89922;-35
2023/05/23 10:27:03;;;;;;;5.25;3.75;;;14.50;99.90;;;;;;4996526;28;90138;-31
2023/05/23 10:29:32;;;;;;;8.60;5.10;;;14.60;99.90;;;;;;4996083;28;90122;-33
2023/05/23 10:31:58;;;;;;;9.55;4.78;;;14.40;99.90;;;;;;4995349;28;89853;-34
2023/05/23 10:34:39;;;;;;;7.40;3.30;;;14.40;99.90;;;;;;4996294;28;89622;-34
2023/05/23 10:37:06;;;;;;;15.77;5.30;;;14.40;99.90;;;;;;4996724;28;87971;-32
2023/05/23 10:39:59;;;;;;;18.63;4.30;;;14.20;99.90;;;;;;4997023;28;90146;-32
2023/05/23 10:42:49;;;;;;;8.32;3.58;;;14.10;99.90;;;;;;4996046;28;90456;-31
2023/05/23 10:45:16;;;;;;;8.02;4.00;;;14.10;99.90;;;;;;4996221;28;90577;-31
2023/05/23 10:47:42;;;;;;;15.82;3.67;;;14.40;99.90;;;;;;4996137;28;88748;-34
2023/05/23 10:50:12;;;;;;;14.38;5.68;;;14.60;99.90;;;;;;4996611;28;90392;-33
2023/05/23 10:52:42;;;;;;;18.33;4.50;;;14.50;99.90;;;;;;4996213;28;89997;-32
2023/05/23 10:55:16;;;;;;;5.07;3.20;;;14.80;99.90;;;;;;4996110;28;90563;-34
2023/05/23 10:57:43;;;;;;;13.88;3.50;;;14.90;99.90;;;;;;4996066;28;88658;-36
2023/05/23 11:00:15;;;;;;;9.10;4.15;;;14.90;99.90;;;;;;4995598;28;89722;-35
2023/05/23 11:02:56;;;;;;;11.38;3.90;;;14.90;99.90;;;;;;4995501;28;88590;-36
2023/05/23 11:05:23;;;;;;;17.85;5.28;;;14.60;99.90;;;;;;4995763;28;90038;-32
2023/05/23 11:08:12;;;;;;;11.68;3.65;;;14.70;99.90;;;;;;4995363;28;88222;-33
2023/05/23 11:11:00;;;;;;;6.47;3.83;;;14.70;99.90;;;;;;4994331;28;90453;-34
2023/05/23 11:13:54;;;;;;;13.80;4.70;;;14.80;99.90;;;;;;4995466;28;89272;-34
2023/05/23 11:16:30;;;;;;;8.85;3.97;;;15.00;99.90;;;;;;4996070;28;89257;-37
2023/05/23 11:19:18;;;;;;;11.18;3.42;;;15.00;99.90;;;;;;4994866;28;89222;-31
2023/05/23 11:21:45;;;;;;;10.00;2.95;;;15.20;99.90;;;;;;4995255;28;90111;-34
2023/05/23 11:24:11;;;;;;;8.00;3.97;;;14.90;99.90;;;;;;4995373;28;89032;-32
2023/05/23 11:26:36;;;;;;;8.30;4.05;;;14.70;99.90;;;;;;4996387;28;89949;-35
2023/05/23 11:29:07;;;;;;;4.70;3.20;;;14.50;99.90;;;;;;4995263;28;88906;-33
2023/05/23 11:31:39;;;;;;;7.35;3.90;;;14.60;99.90;;;;;;4995209;28;90513;-31
2023/05/23 11:34:06;;;;;;;6.35;3.88;;;14.70;99.90;;;;;;4994537;28;89601;-33
2023/05/23 11:36:31;;;;;;;9.90;4.18;;;14.70;99.90;;;;;;4996104;28;90781;-32
2023/05/23 11:39:02;;;;;;;8.25;3.70;;;14.70;99.90;;;;;;4996441;28;90575;-33
2023/05/23 11:41:28;;;;;;;13.13;5.50;;;14.50;99.90;;;;;;4995009;28;89638;-34
2023/05/23 11:43:54;;;;;;;15.07;5.25;;;14.70;99.90;;;;;;4997333;28;90759;-33
2023/05/23 11:46:20;;;;;;;11.85;4.32;;;14.80;99.90;;;;;;4998548;28;90752;-34
2023/05/23 11:48:47;;;;;;;8.02;4.30;;;14.80;99.90;;;;;;4998992;28;89241;-33
2023/05/23 11:51:14;;;;;;;13.45;5.28;;;14.80;99.90;;;;;;4998990;28;90024;-33
2023/05/23 11:53:40;;;;;;;12.55;3.72;;;14.80;99.90;;;;;;4997743;28;91316;-33
2023/05/23 11:56:07;;;;;;;7.70;2.88;;;14.80;99.90;;;;;;4998352;28;89030;-36
2023/05/23 11:58:34;;;;;;;12.77;3.97;;;14.70;99.90;;;;;;4999005;28;88505;-34
2023/05/23 12:01:08;;;;;;;10.40;4.88;;;14.60;99.90;;;;;;4999397;28;90380;-32
2023/05/23 12:03:48;;;;;;;7.35;4.00;;;14.80;99.90;;;;;;4998898;28;88889;-33
2023/05/23 12:06:23;;;;;;;11.70;4.43;;;14.60;99.90;;;;;;4999120;28;89496;-33
2023/05/23 12:08:50;;;;;;;9.93;3.58;;;14.80;99.90;;;;;;4998950;28;90934;-32
2023/05/23 12:11:16;;;;;;;5.57;2.83;;;14.90;99.90;;;;;;4998164;28;90912;-34
2023/05/23 12:13:42;;;;;;;8.50;4.32;;;14.90;99.90;;;;;;4998536;28;89571;-34
2023/05/23 12:16:08;;;;;;;7.15;3.78;;;14.90;99.90;;;;;;4998266;28;89617;-32
2023/05/23 12:18:36;;;;;;;7.30;4.03;;;14.90;99.90;;;;;;4997831;28;87920;-32
2023/05/23 12:21:04;;;;;;;;;;;14.70;99.90;;;;;;4999346;28;89849;-32
2023/05/23 12:23:30;;;;;;;8.32;3.22;;;14.60;99.90;;;;;;5000169;28;89695;-31
2023/05/23 12:25:56;;;;;;;10.05;3.08;;;14.70;99.90;;;;;;4998392;28;89823;-32
2023/05/23 12:28:35;;;;;;;11.00;3.72;;;14.80;94.60;;;;;;4998289;28;89312;-36
2023/05/23 12:31:17;;;;;;;11.52;4.80;;;14.80;99.90;;;;;;4998265;28;89496;-32
2023/05/23 12:33:44;;;;;;;8.90;3.67;;;14.90;99.90;;;;;;4998050;28;90903;-34
2023/05/23 12:36:14;;;;;;;7.97;4.43;;;14.90;99.90;;;;;;4997669;28;90230;-34
2023/05/23 12:38:44;;;;;;;7.60;3.60;;;14.90;99.90;;;;;;4998227;28;89272;-33
2023/05/23 12:41:19;;;;;;;7.43;3.72;;;14.80;90.40;;;;;;4998112;28;90023;-31